Aérodrome :
LOGIN :

S'inscrire | Disclaimer

   EN    FR    IT 

 










Légende :    VFR   VFR Marginal   IFR   IFR Intensif   IFR Très Intensif
Visi : 
Plafond : 
>= 8 km
>= 3000ft
5 à 8 km
1000 à 3000 ft
1500m à 5 km
500 à 1000 ft
800 à 1500m
200 à 500 ft
< 800m
< 200 ft
Symboles :   Orages  Brouillard  Fortes neiges  Fortes précipitations  Vent > 20 kt
SIGMETs :   Divers  Orages  Givrage  Turbulence  Onde Orograph.  Cendres Volcan.







- Altitude de l'aérodrome : 187 ft


ETNW - Wunstorf AB

DERNIER METAR :
  • 202120Z 21009KT 9999 FEW050 19/17 Q1010 BLU+

METARs EXPIRÉS :
  • 202020Z 20007KT 9999 MIFG FEW035TCU 18/17 Q1010 BLU+
  • 201920Z 10004KT 9999 FEW035CB 19/18 Q1009 BLU+

TAF TAF ETNW
Valide du 20 à 17h jusqu'au 21 à 17h UTC


201615Z 2017/2117 21008KT 8000 NSW SCT070 BKN120
TEMPO 2017/2020 22010G20KT 5000 SHRA SCT015 BKN020CB
PROB30 2017/2018 VRB20G40KT 3000 TSRAGR SCT010 BKN015CB
BECMG 2023/2101 25005KT 9999 NSW FEW070 SCT260 BY ETGL
Pas de NOTAMs connus pour ce terrain.



MET'MAP, la Météo Aéronautique d'un coup d'oeil ! - Copyright ORBIFLY Décembre 2007 - Disclaimer

ORBIFLY MET'MAP TEAM :

Programmation & Développement : Alexandra Zaïnal
Conception & Développement : Baudouin d'Aumeries
Co-Programmation & Développement : Marc-Olivier Méhu
Soutien technique & logistique : Manuel Goepfert

Contact : metmap@orbifly.com




SOURCES & CREDITS :

   NOAA